Time;durP1;ratioP1;P1;durP2;ratioP2;P2;SDS_P1;SDS_P2;PMS_P1;PMS_P2;Temp;Humidity;BMP_temperature;BMP_pressure;BME280_temperature;BME280_humidity;BME280_pressure;Samples;Min_cycle;Max_cycle;Signal;HPM_P1;HPM_P2
2023/08/17 00:00:15;;;;;;;9.07;8.48;;;;;;;21.94;56.28;93002.72;5092264;28;20180;-78
2023/08/17 00:02:41;;;;;;;8.27;7.78;;;;;;;21.90;56.19;93017.78;5096489;28;20238;-79
2023/08/17 00:05:07;;;;;;;9.50;8.90;;;;;;;21.74;58.49;92995.66;5091943;28;20304;-79
2023/08/17 00:07:33;;;;;;;10.05;9.27;;;;;;;21.63;58.30;92997.25;5081151;28;20227;-79
2023/08/17 00:09:58;;;;;;;9.35;8.75;;;;;;;21.55;59.29;93003.47;5071987;28;20191;-80
2023/08/17 00:12:24;;;;;;;9.68;8.80;;;;;;;21.43;56.52;92982.25;5071424;28;20224;-79
2023/08/17 00:14:50;;;;;;;9.50;8.60;;;;;;;21.61;57.76;93010.09;5071872;28;20185;-77
2023/08/17 00:17:16;;;;;;;9.18;8.57;;;;;;;21.61;57.00;93010.88;5071151;28;20227;-79
2023/08/17 00:19:41;;;;;;;9.23;8.77;;;;;;;21.49;58.55;93007.47;5071813;28;20203;-78
2023/08/17 00:22:07;;;;;;;10.00;9.00;;;;;;;21.48;57.26;92998.72;5059154;28;20725;-79
2023/08/17 00:24:32;;;;;;;9.23;8.65;;;;;;;21.54;57.06;93009.91;5071222;28;20201;-79
2023/08/17 00:26:57;;;;;;;8.35;7.65;;;;;;;21.55;56.96;92990.94;5071076;28;20235;-79
2023/08/17 00:29:23;;;;;;;8.88;8.07;;;;;;;21.75;55.75;93005.19;5071944;28;20201;-79
2023/08/17 00:31:48;;;;;;;8.90;8.20;;;;;;;21.76;56.50;93001.44;5074886;28;20227;-79
2023/08/17 00:34:14;;;;;;;9.60;8.80;;;;;;;21.73;57.05;93007.38;5091943;28;20310;-78
2023/08/17 00:36:39;;;;;;;9.73;8.80;;;;;;;21.65;56.39;92981.75;5089249;28;20701;-77
2023/08/17 00:39:04;;;;;;;9.75;8.88;;;;;;;21.70;57.28;92997.44;5091305;28;20187;-81
2023/08/17 00:41:30;;;;;;;9.70;8.98;;;;;;;21.59;57.76;92991.81;5091054;28;20216;-78
2023/08/17 00:43:56;;;;;;;8.70;8.10;;;;;;;21.66;57.15;92993.91;5091431;28;20239;-79
2023/08/17 00:46:22;;;;;;;8.40;7.90;;;;;;;21.64;56.95;92994.25;5091342;28;20192;-77
2023/08/17 00:48:48;;;;;;;8.40;7.68;;;;;;;21.65;57.49;93001.09;5090583;28;21735;-79
2023/08/17 00:51:14;;;;;;;11.50;8.77;;;;;;;21.65;57.85;93000.34;5091405;28;20182;-78
2023/08/17 00:53:40;;;;;;;9.27;8.38;;;;;;;21.61;58.29;92994.13;5090752;28;20223;-79
2023/08/17 00:56:06;;;;;;;9.52;8.98;;;;;;;21.48;58.61;92969.47;5091361;28;20182;-79
2023/08/17 00:58:32;;;;;;;9.13;8.52;;;;;;;21.60;58.29;92989.94;5091336;28;20305;-78
2023/08/17 01:00:58;;;;;;;9.98;9.18;;;;;;;21.62;58.84;92996.47;5091162;28;20187;-78
2023/08/17 01:03:27;;;;;;;9.05;8.40;;;;;;;21.69;58.62;92995.91;5090762;28;20316;-78
2023/08/17 01:05:53;;;;;;;9.98;9.40;;;;;;;21.61;58.41;92994.91;5089423;28;20175;-79
2023/08/17 01:08:18;;;;;;;8.73;8.23;;;;;;;21.51;58.94;92995.38;5090486;28;20229;-79
2023/08/17 01:11:12;;;;;;;9.35;8.68;;;;;;;21.53;58.37;92989.72;5091095;28;20182;-78
2023/08/17 01:13:49;;;;;;;9.85;9.10;;;;;;;21.56;58.79;92991.72;5068202;28;20258;-79
2023/08/17 01:16:29;;;;;;;9.98;8.48;;;;;;;21.54;58.86;92972.69;5070848;28;20211;-78
2023/08/17 01:18:58;;;;;;;10.00;9.30;;;;;;;21.60;59.48;92992.59;5069567;28;20221;-77
2023/08/17 01:21:24;;;;;;;10.55;9.48;;;;;;;21.64;58.43;92982.84;5070465;28;20191;-78
2023/08/17 01:23:50;;;;;;;9.30;8.73;;;;;;;21.68;57.81;92991.69;5070532;28;20265;-78
2023/08/17 01:26:16;;;;;;;11.10;9.07;;;;;;;21.70;57.98;92984.13;5070432;28;20948;-78
2023/08/17 01:28:46;;;;;;;9.73;9.02;;;;;;;21.63;58.49;92981.28;5090069;28;20301;-79
2023/08/17 01:31:19;;;;;;;9.52;9.00;;;;;;;21.65;57.23;92979.09;5085395;28;20216;-79
2023/08/17 01:33:51;;;;;;;8.98;8.02;;;;;;;21.58;57.18;92978.88;5090397;28;20234;-76
2023/08/17 01:36:30;;;;;;;9.05;8.45;;;;;;;21.62;56.28;92979.75;5090226;28;20220;-79
2023/08/17 01:38:56;;;;;;;10.07;9.32;;;;;;;21.58;56.65;92984.97;5089083;28;20220;-79
2023/08/17 01:41:23;;;;;;;8.55;8.00;;;;;;;21.56;56.00;92973.09;5089680;28;20197;-77
2023/08/17 01:43:50;;;;;;;9.20;8.13;;;;;;;21.61;55.03;92980.84;5089867;28;20213;-78
2023/08/17 01:46:16;;;;;;;8.95;8.38;;;;;;;21.57;55.50;92980.75;5089516;28;20204;-79
2023/08/17 01:48:43;;;;;;;9.00;8.40;;;;;;;21.41;56.32;92977.25;5089194;28;20259;-79
2023/08/17 01:51:10;;;;;;;9.18;8.48;;;;;;;21.56;54.78;92991.72;5089822;28;20277;-78
2023/08/17 01:53:35;;;;;;;9.25;8.75;;;;;;;21.43;56.20;92982.25;5090074;28;20230;-79
2023/08/17 01:56:01;;;;;;;8.88;8.18;;;;;;;21.35;55.27;92967.19;5089732;28;20178;-78
2023/08/17 01:58:26;;;;;;;9.48;8.77;;;;;;;21.36;54.04;92976.69;5090192;28;20277;-78
2023/08/17 02:00:52;;;;;;;9.25;8.63;;;;;;;21.45;54.45;92986.09;5089765;28;20209;-78
2023/08/17 02:03:17;;;;;;;8.68;8.07;;;;;;;21.39;55.46;92981.34;5089733;28;20228;-78
2023/08/17 02:05:46;;;;;;;8.80;8.30;;;;;;;21.09;54.63;92933.03;5089393;28;20220;-79
2023/08/17 02:08:12;;;;;;;8.57;8.18;;;;;;;21.29;54.72;92977.25;5074048;28;20245;-78
2023/08/17 02:10:37;;;;;;;8.35;7.72;;;;;;;21.13;55.68;92968.47;5069851;28;20191;-79
2023/08/17 02:13:03;;;;;;;8.70;7.88;;;;;;;21.21;53.76;92978.19;5069230;28;20233;-79
2023/08/17 02:15:28;;;;;;;8.52;8.02;;;;;;;21.27;53.71;92973.41;5069727;28;20191;-78
2023/08/17 02:17:54;;;;;;;8.98;8.38;;;;;;;21.15;55.29;92968.13;5069171;28;20258;-78
2023/08/17 02:20:19;;;;;;;8.25;7.75;;;;;;;21.14;54.29;92974.53;5069500;28;20259;-78
2023/08/17 02:22:44;;;;;;;9.35;8.65;;;;;;;21.06;54.82;92972.78;5098699;28;20245;-79
2023/08/17 02:25:10;;;;;;;9.20;8.52;;;;;;;20.96;54.12;92976.66;5069333;28;20184;-78
2023/08/17 02:27:35;;;;;;;8.25;7.75;;;;;;;21.07;53.38;92963.69;5069701;28;20232;-79
2023/08/17 02:30:01;;;;;;;9.07;8.57;;;;;;;20.99;53.86;92954.75;5069153;28;20187;-78
2023/08/17 02:32:27;;;;;;;8.68;7.93;;;;;;;21.01;54.28;92971.13;5078241;28;20226;-78
2023/08/17 02:34:52;;;;;;;8.63;7.93;;;;;;;21.04;54.28;92972.34;5090499;28;20194;-78
2023/08/17 02:37:18;;;;;;;9.05;8.32;;;;;;;20.99;54.52;92969.91;5089246;28;20228;-79
2023/08/17 02:39:43;;;;;;;7.95;7.45;;;;;;;20.80;56.49;92948.41;5089625;28;20175;-79
2023/08/17 02:42:08;;;;;;;7.82;7.43;;;;;;;20.82;54.98;92964.78;5088116;28;20220;-78
2023/08/17 02:44:34;;;;;;;8.07;7.68;;;;;;;20.65;52.87;92953.28;5089544;28;20197;-78
2023/08/17 02:46:59;;;;;;;8.65;8.15;;;;;;;20.72;55.98;92962.59;5089303;28;20272;-78
2023/08/17 02:49:25;;;;;;;8.38;7.88;;;;;;;20.49;56.45;92955.06;5089411;28;20222;-79
2023/08/17 02:51:50;;;;;;;8.98;8.10;;;;;;;20.45;54.74;92959.47;5089169;28;20228;-78
2023/08/17 02:54:15;;;;;;;7.90;7.60;;;;;;;20.43;54.19;92947.66;5089748;28;20189;-77
2023/08/17 02:56:41;;;;;;;7.85;7.18;;;;;;;20.57;52.83;92961.38;5089074;28;20238;-79
2023/08/17 02:59:06;;;;;;;8.27;7.75;;;;;;;20.59;53.88;92953.84;5091425;28;20220;-79
2023/08/17 03:01:32;;;;;;;8.43;8.02;;;;;;;20.46;52.96;92939.81;5103176;28;20192;-78
2023/08/17 03:03:57;;;;;;;9.05;8.25;;;;;;;20.73;52.66;92963.03;5095404;28;20209;-79
2023/08/17 03:06:22;;;;;;;8.38;7.82;;;;;;;20.67;53.26;92953.72;5093006;28;20206;-77
2023/08/17 03:08:48;;;;;;;8.73;7.93;;;;;;;20.67;52.05;92945.78;5092991;28;20301;-78
2023/08/17 03:11:13;;;;;;;8.35;7.93;;;;;;;20.66;52.93;92946.88;5093374;28;20205;-79
2023/08/17 03:13:39;;;;;;;9.00;7.93;;;;;;;20.51;52.21;92915.69;5093001;28;20214;-78
2023/08/17 03:16:04;;;;;;;9.32;8.63;;;;;;;20.75;52.77;92960.03;5092954;28;20229;-76
2023/08/17 03:18:30;;;;;;;8.45;8.00;;;;;;;20.68;52.89;92951.88;5092682;28;20235;-78
2023/08/17 03:20:55;;;;;;;8.13;7.72;;;;;;;20.41;53.25;92923.31;5093130;28;20255;-77
2023/08/17 03:23:20;;;;;;;8.95;8.32;;;;;;;20.58;54.27;92963.69;5094436;28;20217;-79
2023/08/17 03:25:46;;;;;;;9.10;8.55;;;;;;;20.56;55.14;92955.28;5103036;28;20189;-78
2023/08/17 03:28:11;;;;;;;8.05;7.65;;;;;;;20.52;55.74;92966.88;5092411;28;20219;-79
2023/08/17 03:30:37;;;;;;;8.73;8.23;;;;;;;20.46;56.06;92958.38;5083447;28;20233;-77
2023/08/17 03:33:02;;;;;;;8.23;7.72;;;;;;;20.45;55.59;92959.47;5088804;28;20291;-78
2023/08/17 03:35:28;;;;;;;8.30;7.85;;;;;;;20.50;55.58;92961.13;5091953;28;20214;-78
2023/08/17 03:37:53;;;;;;;8.90;8.40;;;;;;;20.49;55.99;92965.69;5092256;28;20255;-77
2023/08/17 03:40:19;;;;;;;8.25;7.85;;;;;;;20.44;56.47;92957.16;5101215;28;20172;-77
2023/08/17 03:42:44;;;;;;;9.15;8.43;;;;;;;20.27;55.96;92926.31;5095799;28;20229;-78
2023/08/17 03:45:09;;;;;;;9.00;8.50;;;;;;;20.52;56.61;92967.66;5092911;28;20209;-77
2023/08/17 03:47:35;;;;;;;8.95;8.43;;;;;;;20.56;55.88;92970.44;5092073;28;20214;-77
2023/08/17 03:50:00;;;;;;;9.77;8.68;;;;;;;20.58;56.52;92961.03;5092628;28;20196;-77
2023/08/17 03:52:26;;;;;;;8.90;8.30;;;;;;;20.80;55.89;92964.34;5091966;28;20293;-77
2023/08/17 03:54:51;;;;;;;8.43;7.82;;;;;;;20.81;56.55;92969.31;5092572;28;20255;-78
2023/08/17 03:57:16;;;;;;;9.48;8.60;;;;;;;20.75;56.71;92944.09;5092211;28;20242;-77
2023/08/17 03:59:42;;;;;;;8.93;8.43;;;;;;;20.72;57.85;92984.59;5092875;28;20215;-77
2023/08/17 04:02:07;;;;;;;9.45;8.80;;;;;;;20.75;57.87;92972.56;5090707;28;21083;-77
2023/08/17 04:04:32;;;;;;;8.63;8.10;;;;;;;20.87;58.40;92970.66;5092600;28;20195;-78
2023/08/17 04:06:58;;;;;;;10.90;8.65;;;;;;;20.87;57.99;92956.63;5091587;28;20224;-78
2023/08/17 04:09:23;;;;;;;8.68;7.97;;;;;;;20.92;58.63;92967.78;5099691;28;20186;-77
2023/08/17 04:11:48;;;;;;;8.63;8.02;;;;;;;20.69;58.19;92927.66;5094948;28;20226;-77
2023/08/17 04:14:14;;;;;;;8.85;8.18;;;;;;;21.04;59.47;92982.97;5092275;28;20279;-77
2023/08/17 04:16:39;;;;;;;10.07;9.35;;;;;;;20.75;60.11;92941.47;5089907;28;20215;-77
2023/08/17 04:19:05;;;;;;;8.50;8.00;;;;;;;21.13;57.53;92981.72;5091818;28;20190;-77
2023/08/17 04:21:30;;;;;;;8.77;8.27;;;;;;;21.07;57.60;92961.03;5091702;28;20213;-78
2023/08/17 04:23:55;;;;;;;9.10;8.43;;;;;;;21.25;57.96;92975.63;5099053;28;20233;-77
2023/08/17 04:26:21;;;;;;;8.25;7.65;;;;;;;21.34;57.51;92982.34;5107747;28;20178;-75
2023/08/17 04:28:46;;;;;;;8.80;8.32;;;;;;;21.48;57.25;92982.00;5091766;28;20185;-77
2023/08/17 04:31:12;;;;;;;8.25;7.75;;;;;;;21.51;57.74;92984.00;5086459;28;20182;-78
2023/08/17 04:33:37;;;;;;;9.48;8.88;;;;;;;21.51;57.82;92981.34;5084329;28;20241;-77
2023/08/17 04:36:03;;;;;;;9.13;8.30;;;;;;;21.53;57.42;92981.75;5091279;28;20192;-78
2023/08/17 04:38:28;;;;;;;8.43;7.82;;;;;;;21.55;57.96;92975.00;5091965;28;20214;-77
2023/08/17 04:40:54;;;;;;;9.23;8.52;;;;;;;21.62;58.43;92974.44;5091273;28;20254;-78
2023/08/17 04:43:19;;;;;;;9.27;8.57;;;;;;;21.73;58.33;92980.81;5091209;28;20241;-77
2023/08/17 04:45:47;;;;;;;8.30;7.70;;;;;;;21.82;58.18;92976.94;5092313;28;20261;-76
2023/08/17 04:48:13;;;;;;;9.02;8.52;;;;;;;21.83;58.42;92975.84;5083662;28;20217;-78
2023/08/17 04:50:38;;;;;;;8.90;8.30;;;;;;;21.86;57.94;92975.16;5091422;28;20193;-78
2023/08/17 04:53:04;;;;;;;8.80;8.20;;;;;;;21.94;57.02;92979.56;5090797;28;20250;-78
2023/08/17 04:55:29;;;;;;;9.13;8.63;;;;;;;22.10;56.25;92976.94;5090974;28;20187;-78
2023/08/17 04:57:55;;;;;;;8.52;8.02;;;;;;;22.13;56.88;92968.28;5090718;28;20256;-78
2023/08/17 05:00:25;;;;;;;9.43;8.82;;;;;;;22.31;56.04;92979.34;5089942;28;20189;-77
2023/08/17 05:02:51;;;;;;;8.38;7.68;;;;;;;22.48;53.38;92971.03;5071176;28;20220;-78
2023/08/17 05:05:16;;;;;;;9.00;8.30;;;;;;;22.52;55.44;92975.41;5070670;28;20192;-77
2023/08/17 05:07:42;;;;;;;8.30;7.70;;;;;;;22.62;53.99;92977.53;5069731;28;20228;-78
2023/08/17 05:10:07;;;;;;;9.48;8.95;;;;;;;22.81;52.13;92982.94;5068976;28;20753;-78
2023/08/17 05:12:33;;;;;;;8.70;8.20;;;;;;;22.88;52.66;92977.78;5069729;28;20233;-78
2023/08/17 05:14:58;;;;;;;9.88;9.20;;;;;;;23.00;52.18;92977.69;5090633;28;20198;-78
2023/08/17 05:17:24;;;;;;;8.95;8.25;;;;;;;23.05;52.73;92979.31;5090470;28;20232;-78
2023/08/17 05:19:49;;;;;;;8.43;7.90;;;;;;;23.18;51.78;92978.88;5090508;28;20204;-78
2023/08/17 05:22:15;;;;;;;8.50;8.00;;;;;;;23.26;51.35;92980.59;5089847;28;20227;-77
2023/08/17 05:24:40;;;;;;;7.95;7.45;;;;;;;23.39;51.23;92982.00;5090461;28;20214;-77
2023/08/17 05:27:06;;;;;;;9.15;8.55;;;;;;;23.42;50.53;92980.56;5083715;28;20233;-78
2023/08/17 05:29:32;;;;;;;8.85;8.02;;;;;;;23.24;49.74;92926.06;5064993;28;20271;-77
2023/08/17 05:31:58;;;;;;;9.00;8.15;;;;;;;23.77;48.16;92982.06;5068854;28;20227;-78
2023/08/17 05:34:24;;;;;;;9.57;8.88;;;;;;;23.95;48.47;92976.31;5070369;28;20215;-76
2023/08/17 05:36:49;;;;;;;9.05;8.45;;;;;;;24.18;49.52;92985.94;5080984;28;20291;-77
2023/08/17 05:39:15;;;;;;;10.50;8.05;;;;;;;24.28;51.48;92988.03;5069110;28;20217;-78
2023/08/17 05:41:40;;;;;;;8.98;8.13;;;;;;;24.24;51.24;92968.53;5075257;28;20187;-78
2023/08/17 05:44:06;;;;;;;8.27;7.60;;;;;;;24.28;52.42;92980.03;5095745;28;20225;-77
2023/08/17 05:46:32;;;;;;;8.27;7.68;;;;;;;24.21;52.75;92968.44;5090062;28;20188;-77
2023/08/17 05:48:59;;;;;;;9.02;7.95;;;;;;;24.21;52.03;92985.25;5090124;28;20220;-77
2023/08/17 05:51:24;;;;;;;7.97;7.38;;;;;;;24.30;51.87;92993.00;5089874;28;20188;-77
2023/08/17 05:53:50;;;;;;;8.90;8.20;;;;;;;24.75;52.24;92982.41;5090166;28;20242;-77
2023/08/17 05:56:15;;;;;;;7.82;7.22;;;;;;;26.71;45.75;92995.78;5090227;28;20209;-76
2023/08/17 05:58:41;;;;;;;8.32;7.82;;;;;;;27.21;44.29;92998.88;5090043;28;21081;-77
2023/08/17 06:01:10;;;;;;;9.10;8.32;;;;;;;27.72;43.87;92999.63;5089693;28;20180;-78
2023/08/17 06:03:37;;;;;;;8.93;8.07;;;;;;;27.61;42.74;92988.81;5092637;28;20239;-77
2023/08/17 06:06:03;;;;;;;10.68;7.68;;;;;;;28.93;40.09;93018.53;5089778;28;20185;-77
2023/08/17 06:08:29;;;;;;;8.73;8.05;;;;;;;31.07;35.96;93016.09;5070847;28;20209;-77
2023/08/17 06:10:55;;;;;;;9.02;7.63;;;;;;;31.98;33.97;93024.63;5069850;28;20202;-77
2023/08/17 06:13:21;;;;;;;8.85;7.55;;;;;;;35.18;28.40;93023.72;5069369;28;20284;-78
2023/08/17 06:15:46;;;;;;;7.07;6.57;;;;;;;35.58;28.02;92997.97;5070252;28;20260;-77
2023/08/17 06:18:12;;;;;;;7.05;6.65;;;;;;;36.86;26.91;93031.50;5084318;28;20291;-77
2023/08/17 06:20:37;;;;;;;7.50;7.00;;;;;;;33.09;31.23;93010.94;5090093;28;20187;-78
2023/08/17 06:23:03;;;;;;;8.25;7.65;;;;;;;29.14;38.55;93008.59;5088671;28;20306;-77
2023/08/17 06:25:29;;;;;;;9.55;7.45;;;;;;;27.39;43.16;93002.47;5090178;28;20188;-78
2023/08/17 06:27:54;;;;;;;8.43;7.93;;;;;;;26.57;45.41;92989.47;5074289;28;20228;-78
2023/08/17 06:30:20;;;;;;;8.63;7.88;;;;;;;26.06;48.43;92985.84;5089305;28;20180;-78
2023/08/17 06:32:45;;;;;;;9.27;8.52;;;;;;;25.79;50.35;92993.13;5088371;28;20255;-77
2023/08/17 06:35:11;;;;;;;9.93;9.20;;;;;;;25.78;51.32;92991.59;5089025;28;20192;-78
2023/08/17 06:37:36;;;;;;;8.93;8.07;;;;;;;25.66;51.02;92999.88;5089076;28;20228;-77
2023/08/17 06:40:05;;;;;;;9.90;9.10;;;;;;;25.46;52.45;93001.13;5089333;28;20172;-78
2023/08/17 06:42:31;;;;;;;9.43;8.45;;;;;;;25.36;53.58;93001.72;5089227;28;20287;-78
2023/08/17 06:44:56;;;;;;;9.25;8.50;;;;;;;25.55;52.46;92998.94;5089413;28;20192;-77
2023/08/17 06:47:22;;;;;;;9.73;9.05;;;;;;;25.65;52.67;92995.63;5088968;28;20236;-77
2023/08/17 06:49:48;;;;;;;10.68;9.20;;;;;;;25.58;52.83;93003.56;5089602;28;20199;-79
2023/08/17 06:52:13;;;;;;;9.85;9.13;;;;;;;25.61;53.20;93002.06;5122057;28;20216;-80
2023/08/17 06:54:39;;;;;;;10.35;9.45;;;;;;;25.71;52.13;92996.88;5089547;28;20204;-77
2023/08/17 06:57:05;;;;;;;9.77;9.00;;;;;;;25.60;51.33;93001.31;5089026;28;20230;-79
2023/08/17 06:59:30;;;;;;;9.98;9.20;;;;;;;25.46;53.28;93003.78;5088790;28;20173;-79
2023/08/17 07:01:56;;;;;;;9.45;8.82;;;;;;;25.09;55.27;92998.22;5088782;28;20262;-77
2023/08/17 07:04:22;;;;;;;9.75;8.98;;;;;;;25.07;55.08;92987.13;5076942;28;20218;-77
2023/08/17 07:06:49;;;;;;;9.82;9.02;;;;;;;25.32;55.54;93006.22;5088180;28;20231;-78
2023/08/17 07:09:14;;;;;;;10.00;9.27;;;;;;;25.47;55.03;93002.66;5076067;28;20176;-77
2023/08/17 07:11:39;;;;;;;9.68;8.90;;;;;;;25.55;54.16;92992.81;5088923;28;20199;-77
2023/08/17 07:14:06;;;;;;;9.82;8.93;;;;;;;25.69;54.31;93009.84;5088766;28;20248;-79
2023/08/17 07:16:32;;;;;;;9.57;8.88;;;;;;;25.87;53.46;93007.41;5088780;28;20188;-78
2023/08/17 07:18:57;;;;;;;10.80;9.73;;;;;;;25.85;52.96;93007.78;5088728;28;20184;-78
2023/08/17 07:21:23;;;;;;;9.60;8.73;;;;;;;26.03;52.38;93002.66;5088841;28;20196;-77
2023/08/17 07:23:50;;;;;;;10.02;9.23;;;;;;;25.92;52.70;92999.03;5088612;28;20220;-76
2023/08/17 07:26:15;;;;;;;9.77;8.88;;;;;;;25.93;51.75;92998.66;5088873;28;20188;-78
2023/08/17 07:28:41;;;;;;;9.55;8.95;;;;;;;26.01;50.93;92991.56;5069518;28;20293;-78
2023/08/17 07:31:06;;;;;;;9.77;9.00;;;;;;;25.83;49.92;92979.81;5062479;28;20726;-80
2023/08/17 07:33:31;;;;;;;10.10;9.18;;;;;;;26.04;49.99;93001.53;5068590;28;20230;-78
2023/08/17 07:35:58;;;;;;;10.00;9.27;;;;;;;26.25;49.41;92994.50;5068594;28;20186;-78
2023/08/17 07:38:23;;;;;;;10.20;9.43;;;;;;;26.20;50.08;92991.38;5090799;28;20228;-78
2023/08/17 07:40:49;;;;;;;10.45;9.30;;;;;;;26.41;49.01;93000.41;5095562;28;20203;-79
2023/08/17 07:43:14;;;;;;;9.43;8.73;;;;;;;26.27;47.78;93008.28;5089602;28;20234;-78
2023/08/17 07:45:40;;;;;;;8.93;8.32;;;;;;;26.32;47.57;93001.84;5091558;28;20203;-78
2023/08/17 07:48:06;;;;;;;9.52;8.82;;;;;;;26.32;49.48;92999.94;5091970;28;20227;-77
2023/08/17 07:50:31;;;;;;;9.98;9.00;;;;;;;26.57;49.25;92994.81;5092737;28;20172;-78
2023/08/17 07:52:56;;;;;;;9.65;8.85;;;;;;;26.37;48.65;92999.59;5092116;28;20248;-78
2023/08/17 07:55:22;;;;;;;9.55;8.70;;;;;;;26.30;48.71;92994.19;5092258;28;20180;-77
2023/08/17 07:57:47;;;;;;;9.55;8.88;;;;;;;26.30;48.75;92996.88;5092065;28;20278;-80
2023/08/17 08:00:13;;;;;;;8.75;8.15;;;;;;;26.35;48.25;92964.38;5092852;28;20249;-78
2023/08/17 08:02:38;;;;;;;9.57;8.88;;;;;;;26.42;48.53;92944.94;5078173;28;20228;-79
2023/08/17 08:05:04;;;;;;;9.82;9.07;;;;;;;26.55;49.58;92995.19;5104144;28;20252;-77
2023/08/17 08:07:29;;;;;;;10.15;9.25;;;;;;;26.74;49.74;92976.28;5091755;28;20228;-78
2023/08/17 08:09:55;;;;;;;10.85;9.48;;;;;;;26.69;48.94;92981.97;5092382;28;20181;-79
2023/08/17 08:12:20;;;;;;;9.20;8.52;;;;;;;26.58;48.81;92991.03;5091891;28;20217;-79
2023/08/17 08:14:46;;;;;;;9.00;8.32;;;;;;;26.28;49.13;92977.72;5092398;28;20179;-78
2023/08/17 08:17:11;;;;;;;8.65;8.10;;;;;;;26.47;49.45;92980.22;5091550;28;20779;-78
2023/08/17 08:19:36;;;;;;;10.27;9.32;;;;;;;26.68;50.11;92983.13;5091514;28;20234;-77
2023/08/17 08:22:02;;;;;;;10.30;9.38;;;;;;;26.74;49.80;92962.88;5090422;28;20228;-79
2023/08/17 08:24:33;;;;;;;8.88;8.30;;;;;;;26.80;49.45;92981.31;5092247;28;20242;-78
2023/08/17 08:26:59;;;;;;;9.07;8.48;;;;;;;26.87;48.49;92986.72;5091382;28;20235;-79
2023/08/17 08:29:24;;;;;;;9.73;8.95;;;;;;;26.97;48.58;92988.72;5086495;28;20182;-79
2023/08/17 08:31:49;;;;;;;11.40;9.70;;;;;;;26.79;49.31;92985.13;5090369;28;20221;-78
2023/08/17 08:34:15;;;;;;;9.23;8.52;;;;;;;26.79;50.70;92982.47;5092146;28;20197;-78
2023/08/17 08:36:40;;;;;;;10.00;9.15;;;;;;;26.89;50.66;92984.44;5091470;28;20196;-78
2023/08/17 08:39:05;;;;;;;10.82;9.77;;;;;;;26.95;50.17;92977.59;5103959;28;20229;-77
2023/08/17 08:41:31;;;;;;;10.00;9.20;;;;;;;27.00;51.29;92985.31;5104562;28;20189;-78
2023/08/17 08:43:57;;;;;;;11.70;10.05;;;;;;;27.25;51.12;92978.22;5098777;28;20266;-78
2023/08/17 08:46:26;;;;;;;9.32;8.63;;;;;;;27.39;48.83;92987.16;5091468;28;20181;-78
2023/08/17 08:48:52;;;;;;;9.70;8.85;;;;;;;27.23;50.25;92988.53;5092013;28;20185;-78
2023/08/17 08:51:23;;;;;;;10.75;9.55;;;;;;;26.97;49.02;92968.06;5091566;28;20223;-79
2023/08/17 08:53:55;;;;;;;10.45;9.75;;;;;;;27.13;50.49;92978.53;5090981;28;20227;-79
2023/08/17 08:56:24;;;;;;;10.25;9.55;;;;;;;27.31;49.22;92980.22;5090538;28;20199;-78
2023/08/17 08:58:50;;;;;;;10.90;10.15;;;;;;;27.50;48.85;92979.19;5091459;28;20204;-78
2023/08/17 09:01:17;;;;;;;9.75;8.75;;;;;;;27.31;49.68;92966.03;5091371;28;20195;-77
2023/08/17 09:03:44;;;;;;;10.25;9.45;;;;;;;27.66;48.78;92960.88;5090481;28;20252;-79
2023/08/17 09:06:11;;;;;;;10.05;9.07;;;;;;;27.62;48.49;92968.13;5090642;28;20192;-77
2023/08/17 09:08:36;;;;;;;9.43;8.82;;;;;;;27.55;47.92;92974.22;5090521;28;20209;-77
2023/08/17 09:11:02;;;;;;;10.35;9.65;;;;;;;27.57;48.03;92965.81;5091185;28;20251;-78
2023/08/17 09:13:28;;;;;;;9.43;8.88;;;;;;;27.74;47.34;92965.91;5090364;28;20228;-78
2023/08/17 09:15:53;;;;;;;10.00;9.20;;;;;;;27.93;46.12;92962.19;5091014;28;20777;-78
2023/08/17 09:18:19;;;;;;;10.30;9.40;;;;;;;27.99;46.79;92960.66;5090311;28;20266;-78
2023/08/17 09:20:46;;;;;;;9.65;8.95;;;;;;;27.80;47.13;92960.97;5091107;28;20213;-78
2023/08/17 09:23:20;;;;;;;9.85;8.95;;;;;;;28.03;46.04;92961.47;5090242;28;20250;-78
2023/08/17 09:25:47;;;;;;;14.50;9.30;;;;;;;27.93;47.11;92943.38;5090629;28;20244;-78
2023/08/17 09:28:15;;;;;;;8.88;8.27;;;;;;;28.34;47.46;92960.03;5090208;28;20280;-78
2023/08/17 09:31:05;;;;;;;10.38;9.40;;;;;;;28.34;46.45;92950.06;5084888;28;20193;-77
2023/08/17 09:33:31;;;;;;;9.65;9.05;;;;;;;28.20;45.49;92945.41;5089852;28;20221;-77
2023/08/17 09:35:58;;;;;;;9.05;8.45;;;;;;;28.27;44.69;92950.03;5090465;28;20180;-78
2023/08/17 09:38:24;;;;;;;9.50;8.80;;;;;;;28.42;45.40;92946.25;5076938;28;20208;-77
2023/08/17 09:40:51;;;;;;;8.93;8.30;;;;;;;28.40;43.97;92929.72;5090173;28;20299;-78
2023/08/17 09:43:17;;;;;;;8.93;8.05;;;;;;;28.36;43.25;92912.06;5090115;28;20217;-77
2023/08/17 09:45:47;;;;;;;9.23;8.35;;;;;;;28.55;43.41;92939.38;5090413;28;20184;-83
2023/08/17 09:48:15;;;;;;;8.43;7.85;;;;;;;28.21;42.31;92927.38;5089389;28;20224;-78
2023/08/17 09:50:42;;;;;;;9.32;8.60;;;;;;;28.37;42.41;92927.81;5089278;28;20181;-77
2023/08/17 09:53:11;;;;;;;8.68;7.97;;;;;;;28.53;41.90;92938.22;5096066;28;20248;-79
2023/08/17 09:55:39;;;;;;;8.60;8.00;;;;;;;28.76;42.72;92925.19;5090462;28;20191;-78
2023/08/17 09:58:04;;;;;;;8.43;7.82;;;;;;;29.01;42.14;92929.44;5089831;28;20217;-78
2023/08/17 10:00:31;;;;;;;7.88;7.38;;;;;;;29.14;41.18;92925.19;5090413;28;20177;-77
2023/08/17 10:03:01;;;;;;;8.43;7.75;;;;;;;29.04;39.77;92925.97;5089403;28;20247;-78
2023/08/17 10:05:30;;;;;;;8.40;7.80;;;;;;;29.21;39.69;92925.22;5090864;28;20193;-78
2023/08/17 10:07:59;;;;;;;8.48;7.78;;;;;;;29.22;41.13;92928.66;5101017;28;20714;-78
2023/08/17 10:10:26;;;;;;;8.80;8.07;;;;;;;29.23;40.96;92930.94;5089721;28;20283;-78
2023/08/17 10:13:04;;;;;;;7.15;6.57;;;;;;;29.39;39.53;92923.25;5092075;28;20225;-77
2023/08/17 10:15:32;;;;;;;7.72;7.22;;;;;;;29.21;39.56;92927.13;5091380;28;20674;-78
2023/08/17 10:18:06;;;;;;;9.38;8.52;;;;;;;29.41;38.94;92920.94;5088793;28;20229;-78
2023/08/17 10:20:35;;;;;;;8.32;7.82;;;;;;;29.40;38.74;92913.25;5089499;28;20234;-79
2023/08/17 10:23:06;;;;;;;8.43;7.72;;;;;;;29.59;37.72;92910.88;5088622;28;20268;-78
2023/08/17 10:25:32;;;;;;;8.50;7.50;;;;;;;29.23;39.45;92904.06;5089851;28;20188;-79
2023/08/17 10:28:00;;;;;;;8.00;7.30;;;;;;;29.23;39.44;92908.69;5089055;28;20228;-78
2023/08/17 10:30:25;;;;;;;7.65;7.15;;;;;;;29.57;39.90;92917.84;5084361;28;20214;-77
2023/08/17 10:32:51;;;;;;;8.40;7.70;;;;;;;29.73;38.10;92913.56;5089174;28;20244;-78
2023/08/17 10:35:17;;;;;;;7.90;7.40;;;;;;;29.44;38.18;92904.03;5089773;28;20669;-79
2023/08/17 10:37:43;;;;;;;7.95;7.25;;;;;;;29.48;38.99;92918.22;5089716;28;20238;-77
2023/08/17 10:40:10;;;;;;;9.00;7.88;;;;;;;29.65;39.02;92905.91;5101292;28;20185;-79
2023/08/17 10:42:36;;;;;;;7.55;7.15;;;;;;;29.52;37.49;92908.22;5089236;28;20565;-81
2023/08/17 10:45:22;;;;;;;7.55;7.05;;;;;;;29.69;38.25;92906.66;5090245;28;20257;-78
2023/08/17 10:47:47;;;;;;;8.68;7.85;;;;;;;29.85;37.63;92900.84;5071722;28;20242;-78
2023/08/17 10:50:24;;;;;;;8.07;7.32;;;;;;;29.75;38.87;92897.03;5090030;28;20189;-78
2023/08/17 10:52:52;;;;;;;8.38;7.65;;;;;;;29.86;37.92;92896.97;5083059;28;20242;-78
2023/08/17 10:55:36;;;;;;;8.25;7.63;;;;;;;29.63;38.02;92894.75;5082736;28;20217;-79
2023/08/17 10:58:01;;;;;;;10.52;7.57;;;;;;;29.79;37.87;92902.41;5089210;28;20227;-78
2023/08/17 11:00:33;;;;;;;7.68;7.18;;;;;;;29.63;38.31;92892.03;5089947;28;20203;-78
2023/08/17 11:03:20;;;;;;;8.75;8.05;;;;;;;29.82;38.41;92898.94;5088498;28;20234;-77
2023/08/17 11:05:50;;;;;;;8.90;7.93;;;;;;;29.96;37.66;92891.56;5089070;28;20193;-78
2023/08/17 11:08:34;;;;;;;7.57;6.90;;;;;;;29.82;35.34;92888.94;5088918;28;20224;-79
2023/08/17 11:11:10;;;;;;;7.53;7.03;;;;;;;29.55;36.90;92888.63;5078468;28;20195;-76
2023/08/17 11:13:39;;;;;;;7.63;7.13;;;;;;;29.19;36.99;92881.78;5086426;28;20240;-77
2023/08/17 11:16:07;;;;;;;8.85;8.25;;;;;;;29.25;37.11;92882.13;5089070;28;20203;-77
2023/08/17 11:18:33;;;;;;;11.60;7.80;;;;;;;29.40;36.80;92876.34;5100911;28;20223;-79
2023/08/17 11:20:59;;;;;;;8.43;7.82;;;;;;;29.51;36.97;92887.84;5092276;28;20201;-78
2023/08/17 11:23:28;;;;;;;8.30;7.63;;;;;;;29.35;37.05;92878.69;5092824;28;20219;-78
2023/08/17 11:25:53;;;;;;;8.50;7.70;;;;;;;29.15;37.21;92885.63;5093031;28;20188;-80
2023/08/17 11:28:19;;;;;;;9.25;8.55;;;;;;;29.24;37.81;92883.31;5092563;28;20211;-78